Terminal Aerodrome Forecast
Issued by NWS

Home | Current Version | Previous Version | Text Only | Print | Product List | Glossary On
Versions: 1 2 3 4 5 6 7 8 9 10 11 12 13 14 15 16 17 18 19 20 21 22 23 24 25 26
472
FTUS43 KILX 261542 AAB
TAFBMI
TAF AMD
KBMI 261542Z 2616/2712 12008KT P6SM SCT090 BKN200
     FM261700 16010G18KT P6SM VCTS BKN070CB
     FM262100 18009G15KT P6SM VCTS BKN050CB
     FM270200 21006KT P6SM BKN040
     FM270500 28005KT P6SM BKN015
     FM270800 01005KT P6SM SCT008=

USA.gov is the U.S. government's official web portal to all federal, state and local government web resources and services.